sensor_id;sensor_type;location;lat;lon;timestamp;temperature;humidity
16040;DHT22;8124;48.634;8.120;2022-12-20T00:03:25;5.10;99.90
16040;DHT22;8124;48.634;8.120;2022-12-20T00:08:30;4.90;99.90
16040;DHT22;8124;48.634;8.120;2022-12-20T00:13:33;5.00;99.90
16040;DHT22;8124;48.634;8.120;2022-12-20T00:18:37;5.20;99.90
16040;DHT22;8124;48.634;8.120;2022-12-20T00:23:42;5.20;99.90
16040;DHT22;8124;48.634;8.120;2022-12-20T00:28:45;5.20;99.90
16040;DHT22;8124;48.634;8.120;2022-12-20T00:33:51;5.20;99.90
16040;DHT22;8124;48.634;8.120;2022-12-20T00:38:57;5.10;99.90
16040;DHT22;8124;48.634;8.120;2022-12-20T00:44:01;5.10;99.90
16040;DHT22;8124;48.634;8.120;2022-12-20T00:49:04;5.10;99.90
16040;DHT22;8124;48.634;8.120;2022-12-20T00:54:09;5.10;99.90
16040;DHT22;8124;48.634;8.120;2022-12-20T00:59:12;5.20;99.90
16040;DHT22;8124;48.634;8.120;2022-12-20T01:04:15;5.30;99.90
16040;DHT22;8124;48.634;8.120;2022-12-20T01:09:19;5.40;99.90
16040;DHT22;8124;48.634;8.120;2022-12-20T01:14:22;5.80;99.90
16040;DHT22;8124;48.634;8.120;2022-12-20T01:19:25;6.20;99.90
16040;DHT22;8124;48.634;8.120;2022-12-20T01:24:29;6.80;99.90
16040;DHT22;8124;48.634;8.120;2022-12-20T01:29:32;7.20;99.90
16040;DHT22;8124;48.634;8.120;2022-12-20T01:34:35;7.50;99.90
16040;DHT22;8124;48.634;8.120;2022-12-20T01:39:45;7.90;99.90
16040;DHT22;8124;48.634;8.120;2022-12-20T01:44:55;6.90;99.90
16040;DHT22;8124;48.634;8.120;2022-12-20T01:49:58;6.00;99.90
16040;DHT22;8124;48.634;8.120;2022-12-20T01:55:09;5.70;99.90
16040;DHT22;8124;48.634;8.120;2022-12-20T02:00:14;5.80;99.90
16040;DHT22;8124;48.634;8.120;2022-12-20T02:05:19;5.70;99.90
16040;DHT22;8124;48.634;8.120;2022-12-20T02:10:30;5.60;99.90
16040;DHT22;8124;48.634;8.120;2022-12-20T02:15:42;5.60;99.90
16040;DHT22;8124;48.634;8.120;2022-12-20T02:21:17;5.80;99.90
16040;DHT22;8124;48.634;8.120;2022-12-20T02:26:37;5.70;99.90
16040;DHT22;8124;48.634;8.120;2022-12-20T02:31:49;5.80;99.90
16040;DHT22;8124;48.634;8.120;2022-12-20T02:36:54;5.60;99.90
16040;DHT22;8124;48.634;8.120;2022-12-20T02:42:00;5.50;99.90
16040;DHT22;8124;48.634;8.120;2022-12-20T02:47:10;5.40;99.90
16040;DHT22;8124;48.634;8.120;2022-12-20T02:52:17;5.10;99.90
16040;DHT22;8124;48.634;8.120;2022-12-20T02:57:26;5.10;99.90
16040;DHT22;8124;48.634;8.120;2022-12-20T03:02:33;5.10;99.90
16040;DHT22;8124;48.634;8.120;2022-12-20T03:07:57;5.30;99.90
16040;DHT22;8124;48.634;8.120;2022-12-20T03:13:01;5.30;99.90
16040;DHT22;8124;48.634;8.120;2022-12-20T03:18:08;5.10;99.90
16040;DHT22;8124;48.634;8.120;2022-12-20T03:23:11;5.00;99.90
16040;DHT22;8124;48.634;8.120;2022-12-20T03:28:14;5.00;99.90
16040;DHT22;8124;48.634;8.120;2022-12-20T03:33:19;5.10;99.90
16040;DHT22;8124;48.634;8.120;2022-12-20T03:38:22;5.40;99.90
16040;DHT22;8124;48.634;8.120;2022-12-20T03:43:30;5.60;99.90
16040;DHT22;8124;48.634;8.120;2022-12-20T03:48:35;5.70;99.90
16040;DHT22;8124;48.634;8.120;2022-12-20T03:53:39;5.70;99.90
16040;DHT22;8124;48.634;8.120;2022-12-20T03:58:42;5.80;99.90
16040;DHT22;8124;48.634;8.120;2022-12-20T04:03:48;5.80;99.90
16040;DHT22;8124;48.634;8.120;2022-12-20T04:08:52;5.80;99.90
16040;DHT22;8124;48.634;8.120;2022-12-20T04:14:02;5.80;99.90
16040;DHT22;8124;48.634;8.120;2022-12-20T04:19:08;5.70;99.90
16040;DHT22;8124;48.634;8.120;2022-12-20T04:24:18;5.70;99.90
16040;DHT22;8124;48.634;8.120;2022-12-20T04:29:34;5.60;99.90
16040;DHT22;8124;48.634;8.120;2022-12-20T04:34:42;5.80;99.90
16040;DHT22;8124;48.634;8.120;2022-12-20T04:39:45;5.60;99.90
16040;DHT22;8124;48.634;8.120;2022-12-20T04:44:57;5.40;99.90
16040;DHT22;8124;48.634;8.120;2022-12-20T04:50:05;5.30;99.90
16040;DHT22;8124;48.634;8.120;2022-12-20T04:55:09;5.40;99.90
16040;DHT22;8124;48.634;8.120;2022-12-20T05:00:13;5.50;99.90
16040;DHT22;8124;48.634;8.120;2022-12-20T05:05:20;5.60;99.90
16040;DHT22;8124;48.634;8.120;2022-12-20T05:10:27;5.80;99.90
16040;DHT22;8124;48.634;8.120;2022-12-20T05:15:34;5.90;99.90
16040;DHT22;8124;48.634;8.120;2022-12-20T05:20:39;6.00;99.90
16040;DHT22;8124;48.634;8.120;2022-12-20T05:25:44;6.00;99.90
16040;DHT22;8124;48.634;8.120;2022-12-20T05:31:05;6.00;99.90
16040;DHT22;8124;48.634;8.120;2022-12-20T05:36:11;6.10;99.90
16040;DHT22;8124;48.634;8.120;2022-12-20T05:41:14;6.10;99.90
16040;DHT22;8124;48.634;8.120;2022-12-20T05:46:21;5.90;99.90
16040;DHT22;8124;48.634;8.120;2022-12-20T05:51:36;5.70;99.90
16040;DHT22;8124;48.634;8.120;2022-12-20T05:56:52;5.70;99.90
16040;DHT22;8124;48.634;8.120;2022-12-20T06:02:01;5.80;99.90
16040;DHT22;8124;48.634;8.120;2022-12-20T06:07:06;5.90;99.90
16040;DHT22;8124;48.634;8.120;2022-12-20T06:12:09;5.90;99.90
16040;DHT22;8124;48.634;8.120;2022-12-20T06:17:13;6.00;99.90
16040;DHT22;8124;48.634;8.120;2022-12-20T06:22:18;6.10;99.90
16040;DHT22;8124;48.634;8.120;2022-12-20T06:27:26;6.10;99.90
16040;DHT22;8124;48.634;8.120;2022-12-20T06:32:46;6.20;99.90
16040;DHT22;8124;48.634;8.120;2022-12-20T06:37:50;6.10;99.90
16040;DHT22;8124;48.634;8.120;2022-12-20T06:42:54;6.10;99.90
16040;DHT22;8124;48.634;8.120;2022-12-20T06:47:58;5.80;99.90
16040;DHT22;8124;48.634;8.120;2022-12-20T06:53:05;5.70;99.90
16040;DHT22;8124;48.634;8.120;2022-12-20T06:58:08;5.80;99.90
16040;DHT22;8124;48.634;8.120;2022-12-20T07:03:12;5.80;99.90
16040;DHT22;8124;48.634;8.120;2022-12-20T07:08:17;5.70;99.90
16040;DHT22;8124;48.634;8.120;2022-12-20T07:13:19;5.70;99.90
16040;DHT22;8124;48.634;8.120;2022-12-20T07:18:22;5.70;99.90
16040;DHT22;8124;48.634;8.120;2022-12-20T07:23:28;5.80;99.90
16040;DHT22;8124;48.634;8.120;2022-12-20T07:28:31;6.00;99.90
16040;DHT22;8124;48.634;8.120;2022-12-20T07:33:34;5.90;99.90
16040;DHT22;8124;48.634;8.120;2022-12-20T07:38:39;5.50;99.90
16040;DHT22;8124;48.634;8.120;2022-12-20T07:43:42;5.60;99.90
16040;DHT22;8124;48.634;8.120;2022-12-20T07:48:45;5.80;99.90
16040;DHT22;8124;48.634;8.120;2022-12-20T07:53:51;5.90;99.90
16040;DHT22;8124;48.634;8.120;2022-12-20T07:58:57;5.90;99.90
16040;DHT22;8124;48.634;8.120;2022-12-20T08:04:04;5.90;99.90
16040;DHT22;8124;48.634;8.120;2022-12-20T08:09:11;6.00;99.90
16040;DHT22;8124;48.634;8.120;2022-12-20T08:14:16;5.90;99.90
16040;DHT22;8124;48.634;8.120;2022-12-20T08:19:20;5.80;99.90
16040;DHT22;8124;48.634;8.120;2022-12-20T08:24:33;5.80;99.90
16040;DHT22;8124;48.634;8.120;2022-12-20T08:29:36;5.70;99.90
16040;DHT22;8124;48.634;8.120;2022-12-20T08:34:39;5.80;99.90
16040;DHT22;8124;48.634;8.120;2022-12-20T08:39:44;5.90;99.90
16040;DHT22;8124;48.634;8.120;2022-12-20T08:44:47;6.10;99.90
16040;DHT22;8124;48.634;8.120;2022-12-20T08:49:50;6.20;99.90
16040;DHT22;8124;48.634;8.120;2022-12-20T08:54:56;6.20;99.90
16040;DHT22;8124;48.634;8.120;2022-12-20T09:00:03;6.20;99.90
16040;DHT22;8124;48.634;8.120;2022-12-20T09:05:06;6.20;99.90
16040;DHT22;8124;48.634;8.120;2022-12-20T09:10:11;6.50;99.90
16040;DHT22;8124;48.634;8.120;2022-12-20T09:15:15;6.60;99.90
16040;DHT22;8124;48.634;8.120;2022-12-20T09:20:18;6.50;99.90
16040;DHT22;8124;48.634;8.120;2022-12-20T09:25:22;6.50;99.90
16040;DHT22;8124;48.634;8.120;2022-12-20T09:30:25;6.60;99.90
16040;DHT22;8124;48.634;8.120;2022-12-20T09:35:28;6.70;99.90
16040;DHT22;8124;48.634;8.120;2022-12-20T09:40:32;6.80;99.90
16040;DHT22;8124;48.634;8.120;2022-12-20T09:45:38;6.90;99.90
16040;DHT22;8124;48.634;8.120;2022-12-20T09:50:47;7.10;99.90
16040;DHT22;8124;48.634;8.120;2022-12-20T09:56:01;7.20;99.90
16040;DHT22;8124;48.634;8.120;2022-12-20T10:01:15;7.20;99.90
16040;DHT22;8124;48.634;8.120;2022-12-20T10:06:33;7.30;99.90
16040;DHT22;8124;48.634;8.120;2022-12-20T10:11:52;7.20;99.90
16040;DHT22;8124;48.634;8.120;2022-12-20T10:17:03;7.40;99.90
16040;DHT22;8124;48.634;8.120;2022-12-20T10:22:11;7.40;99.90
16040;DHT22;8124;48.634;8.120;2022-12-20T10:27:19;7.30;99.90
16040;DHT22;8124;48.634;8.120;2022-12-20T10:32:23;7.30;99.90
16040;DHT22;8124;48.634;8.120;2022-12-20T10:37:29;7.40;99.90
16040;DHT22;8124;48.634;8.120;2022-12-20T10:42:37;7.60;99.90
16040;DHT22;8124;48.634;8.120;2022-12-20T10:47:43;7.60;99.90
16040;DHT22;8124;48.634;8.120;2022-12-20T10:53:16;7.60;99.90
16040;DHT22;8124;48.634;8.120;2022-12-20T10:58:31;7.70;99.90
16040;DHT22;8124;48.634;8.120;2022-12-20T11:03:52;7.80;99.90
16040;DHT22;8124;48.634;8.120;2022-12-20T11:09:20;7.80;99.90
16040;DHT22;8124;48.634;8.120;2022-12-20T11:14:25;7.80;99.90
16040;DHT22;8124;48.634;8.120;2022-12-20T11:19:48;7.80;99.90
16040;DHT22;8124;48.634;8.120;2022-12-20T11:25:02;7.90;99.90
16040;DHT22;8124;48.634;8.120;2022-12-20T11:30:14;7.80;99.90
16040;DHT22;8124;48.634;8.120;2022-12-20T11:35:23;7.90;99.90
16040;DHT22;8124;48.634;8.120;2022-12-20T11:40:30;7.90;99.90
16040;DHT22;8124;48.634;8.120;2022-12-20T11:45:40;7.80;99.90
16040;DHT22;8124;48.634;8.120;2022-12-20T11:56:20;8.00;99.90
16040;DHT22;8124;48.634;8.120;2022-12-20T12:01:31;8.10;99.90
16040;DHT22;8124;48.634;8.120;2022-12-20T12:06:38;8.20;99.90
16040;DHT22;8124;48.634;8.120;2022-12-20T12:11:48;8.30;99.90
16040;DHT22;8124;48.634;8.120;2022-12-20T12:17:17;8.60;99.90
16040;DHT22;8124;48.634;8.120;2022-12-20T12:22:27;8.50;99.90
16040;DHT22;8124;48.634;8.120;2022-12-20T12:27:32;8.50;99.90
16040;DHT22;8124;48.634;8.120;2022-12-20T12:32:40;8.70;99.90
16040;DHT22;8124;48.634;8.120;2022-12-20T12:37:59;8.70;99.90
16040;DHT22;8124;48.634;8.120;2022-12-20T12:43:35;9.80;99.90
16040;DHT22;8124;48.634;8.120;2022-12-20T12:48:47;8.80;99.90
16040;DHT22;8124;48.634;8.120;2022-12-20T12:53:53;8.50;99.90
16040;DHT22;8124;48.634;8.120;2022-12-20T12:59:41;8.60;99.90
16040;DHT22;8124;48.634;8.120;2022-12-20T13:04:55;8.60;99.90
16040;DHT22;8124;48.634;8.120;2022-12-20T13:10:01;8.70;99.90
16040;DHT22;8124;48.634;8.120;2022-12-20T13:21:29;9.10;99.90
16040;DHT22;8124;48.634;8.120;2022-12-20T13:26:49;9.10;99.90
16040;DHT22;8124;48.634;8.120;2022-12-20T13:31:53;9.80;99.90
16040;DHT22;8124;48.634;8.120;2022-12-20T13:36:58;10.20;99.90
16040;DHT22;8124;48.634;8.120;2022-12-20T13:42:16;10.60;99.90
16040;DHT22;8124;48.634;8.120;2022-12-20T13:47:39;10.90;99.90
16040;DHT22;8124;48.634;8.120;2022-12-20T13:52:45;11.10;99.90
16040;DHT22;8124;48.634;8.120;2022-12-20T13:57:47;11.40;99.90
16040;DHT22;8124;48.634;8.120;2022-12-20T14:02:52;10.30;99.90
16040;DHT22;8124;48.634;8.120;2022-12-20T14:08:01;10.10;99.90
16040;DHT22;8124;48.634;8.120;2022-12-20T14:13:18;9.80;99.90
16040;DHT22;8124;48.634;8.120;2022-12-20T14:18:23;9.60;99.90
16040;DHT22;8124;48.634;8.120;2022-12-20T14:23:33;9.70;99.90
16040;DHT22;8124;48.634;8.120;2022-12-20T14:28:39;9.60;99.90
16040;DHT22;8124;48.634;8.120;2022-12-20T14:33:42;9.40;99.90
16040;DHT22;8124;48.634;8.120;2022-12-20T14:38:50;9.30;99.90
16040;DHT22;8124;48.634;8.120;2022-12-20T14:43:54;9.50;99.90
16040;DHT22;8124;48.634;8.120;2022-12-20T14:49:14;9.50;99.90
16040;DHT22;8124;48.634;8.120;2022-12-20T14:54:22;9.50;99.90
16040;DHT22;8124;48.634;8.120;2022-12-20T14:59:58;9.40;99.90
16040;DHT22;8124;48.634;8.120;2022-12-20T15:05:08;9.40;99.90
16040;DHT22;8124;48.634;8.120;2022-12-20T15:10:13;9.40;99.90
16040;DHT22;8124;48.634;8.120;2022-12-20T15:15:16;9.40;99.90
16040;DHT22;8124;48.634;8.120;2022-12-20T15:20:32;9.30;99.90
16040;DHT22;8124;48.634;8.120;2022-12-20T15:25:36;9.30;99.90
16040;DHT22;8124;48.634;8.120;2022-12-20T15:30:47;9.30;99.90
16040;DHT22;8124;48.634;8.120;2022-12-20T15:35:51;9.40;99.90
16040;DHT22;8124;48.634;8.120;2022-12-20T15:41:03;9.40;99.90
16040;DHT22;8124;48.634;8.120;2022-12-20T15:46:06;9.40;99.90
16040;DHT22;8124;48.634;8.120;2022-12-20T15:51:15;9.40;99.90
16040;DHT22;8124;48.634;8.120;2022-12-20T15:56:22;9.30;99.90
16040;DHT22;8124;48.634;8.120;2022-12-20T16:01:28;9.30;99.90
16040;DHT22;8124;48.634;8.120;2022-12-20T16:06:45;8.90;99.90
16040;DHT22;8124;48.634;8.120;2022-12-20T16:11:50;9.10;99.90
16040;DHT22;8124;48.634;8.120;2022-12-20T16:16:53;9.30;99.90
16040;DHT22;8124;48.634;8.120;2022-12-20T16:21:56;9.50;99.90
16040;DHT22;8124;48.634;8.120;2022-12-20T16:27:01;9.50;99.90
16040;DHT22;8124;48.634;8.120;2022-12-20T16:32:11;9.50;99.90
16040;DHT22;8124;48.634;8.120;2022-12-20T16:37:15;9.70;99.90
16040;DHT22;8124;48.634;8.120;2022-12-20T16:42:19;10.00;99.90
16040;DHT22;8124;48.634;8.120;2022-12-20T16:47:24;10.50;99.90
16040;DHT22;8124;48.634;8.120;2022-12-20T16:52:27;10.80;99.90
16040;DHT22;8124;48.634;8.120;2022-12-20T16:57:31;10.90;99.90
16040;DHT22;8124;48.634;8.120;2022-12-20T17:02:34;11.20;99.90
16040;DHT22;8124;48.634;8.120;2022-12-20T17:07:37;11.40;99.90
16040;DHT22;8124;48.634;8.120;2022-12-20T17:12:44;11.70;99.90
16040;DHT22;8124;48.634;8.120;2022-12-20T17:17:47;11.70;99.90
16040;DHT22;8124;48.634;8.120;2022-12-20T17:22:53;11.80;99.90
16040;DHT22;8124;48.634;8.120;2022-12-20T17:27:57;12.00;99.90
16040;DHT22;8124;48.634;8.120;2022-12-20T17:33:00;12.00;99.90
16040;DHT22;8124;48.634;8.120;2022-12-20T17:38:03;12.30;99.90
16040;DHT22;8124;48.634;8.120;2022-12-20T17:43:10;12.40;99.90
16040;DHT22;8124;48.634;8.120;2022-12-20T17:48:14;12.40;99.90
16040;DHT22;8124;48.634;8.120;2022-12-20T17:53:17;12.60;99.90
16040;DHT22;8124;48.634;8.120;2022-12-20T17:58:23;12.60;99.90
16040;DHT22;8124;48.634;8.120;2022-12-20T18:03:26;12.70;99.90
16040;DHT22;8124;48.634;8.120;2022-12-20T18:08:50;12.70;99.90
16040;DHT22;8124;48.634;8.120;2022-12-20T18:13:56;12.80;99.90
16040;DHT22;8124;48.634;8.120;2022-12-20T18:19:00;12.80;99.90
16040;DHT22;8124;48.634;8.120;2022-12-20T18:24:03;12.80;99.90
16040;DHT22;8124;48.634;8.120;2022-12-20T18:29:09;12.90;99.90
16040;DHT22;8124;48.634;8.120;2022-12-20T18:34:20;12.90;99.90
16040;DHT22;8124;48.634;8.120;2022-12-20T18:39:23;13.00;99.90
16040;DHT22;8124;48.634;8.120;2022-12-20T18:44:27;13.00;99.90
16040;DHT22;8124;48.634;8.120;2022-12-20T18:49:30;13.00;99.90
16040;DHT22;8124;48.634;8.120;2022-12-20T18:54:35;13.10;99.90
16040;DHT22;8124;48.634;8.120;2022-12-20T18:59:39;13.10;99.90
16040;DHT22;8124;48.634;8.120;2022-12-20T19:04:42;13.20;99.90
16040;DHT22;8124;48.634;8.120;2022-12-20T19:09:45;13.20;99.90
16040;DHT22;8124;48.634;8.120;2022-12-20T19:14:51;13.40;99.90
16040;DHT22;8124;48.634;8.120;2022-12-20T19:19:54;13.40;99.90
16040;DHT22;8124;48.634;8.120;2022-12-20T19:24:57;13.40;99.90
16040;DHT22;8124;48.634;8.120;2022-12-20T19:30:01;13.40;99.90
16040;DHT22;8124;48.634;8.120;2022-12-20T19:35:05;13.50;99.90
16040;DHT22;8124;48.634;8.120;2022-12-20T19:40:29;13.40;99.90
16040;DHT22;8124;48.634;8.120;2022-12-20T19:45:37;13.40;99.90
16040;DHT22;8124;48.634;8.120;2022-12-20T19:50:40;13.20;99.90
16040;DHT22;8124;48.634;8.120;2022-12-20T19:55:50;11.60;99.90
16040;DHT22;8124;48.634;8.120;2022-12-20T20:00:55;11.30;99.90
16040;DHT22;8124;48.634;8.120;2022-12-20T20:06:05;11.30;99.90
16040;DHT22;8124;48.634;8.120;2022-12-20T20:11:09;11.50;99.90
16040;DHT22;8124;48.634;8.120;2022-12-20T20:16:14;11.50;99.90
16040;DHT22;8124;48.634;8.120;2022-12-20T20:21:23;11.70;99.90
16040;DHT22;8124;48.634;8.120;2022-12-20T20:26:27;11.60;99.90
16040;DHT22;8124;48.634;8.120;2022-12-20T20:31:33;11.50;99.90
16040;DHT22;8124;48.634;8.120;2022-12-20T20:36:36;11.50;99.90
16040;DHT22;8124;48.634;8.120;2022-12-20T20:41:39;11.50;99.90
16040;DHT22;8124;48.634;8.120;2022-12-20T20:46:44;11.60;99.90
16040;DHT22;8124;48.634;8.120;2022-12-20T20:51:47;11.80;99.90
16040;DHT22;8124;48.634;8.120;2022-12-20T20:56:50;12.00;99.90
16040;DHT22;8124;48.634;8.120;2022-12-20T21:01:54;12.20;99.90
16040;DHT22;8124;48.634;8.120;2022-12-20T21:06:57;12.30;99.90
16040;DHT22;8124;48.634;8.120;2022-12-20T21:12:01;12.40;99.90
16040;DHT22;8124;48.634;8.120;2022-12-20T21:17:05;12.40;99.90
16040;DHT22;8124;48.634;8.120;2022-12-20T21:22:08;12.50;99.90
16040;DHT22;8124;48.634;8.120;2022-12-20T21:27:11;12.60;99.90
16040;DHT22;8124;48.634;8.120;2022-12-20T21:32:15;12.70;99.90
16040;DHT22;8124;48.634;8.120;2022-12-20T21:37:18;12.70;99.90
16040;DHT22;8124;48.634;8.120;2022-12-20T21:42:22;12.80;99.90
16040;DHT22;8124;48.634;8.120;2022-12-20T21:47:34;12.70;99.90
16040;DHT22;8124;48.634;8.120;2022-12-20T21:52:38;12.70;99.90
16040;DHT22;8124;48.634;8.120;2022-12-20T21:57:41;12.80;99.90
16040;DHT22;8124;48.634;8.120;2022-12-20T22:02:46;12.80;99.90
16040;DHT22;8124;48.634;8.120;2022-12-20T22:07:49;12.80;99.90
16040;DHT22;8124;48.634;8.120;2022-12-20T22:12:52;13.00;99.90
16040;DHT22;8124;48.634;8.120;2022-12-20T22:17:56;13.00;99.90
16040;DHT22;8124;48.634;8.120;2022-12-20T22:22:59;13.00;99.90
16040;DHT22;8124;48.634;8.120;2022-12-20T22:28:02;12.90;99.90
16040;DHT22;8124;48.634;8.120;2022-12-20T22:33:07;12.90;99.90
16040;DHT22;8124;48.634;8.120;2022-12-20T22:38:10;13.00;99.90
16040;DHT22;8124;48.634;8.120;2022-12-20T22:43:13;13.00;99.90
16040;DHT22;8124;48.634;8.120;2022-12-20T22:48:17;13.00;99.90
16040;DHT22;8124;48.634;8.120;2022-12-20T22:53:20;13.00;99.90
16040;DHT22;8124;48.634;8.120;2022-12-20T22:58:23;12.90;99.90
16040;DHT22;8124;48.634;8.120;2022-12-20T23:03:28;12.90;99.90
16040;DHT22;8124;48.634;8.120;2022-12-20T23:08:33;12.90;99.90
16040;DHT22;8124;48.634;8.120;2022-12-20T23:13:37;12.90;99.90
16040;DHT22;8124;48.634;8.120;2022-12-20T23:19:00;12.90;99.90
16040;DHT22;8124;48.634;8.120;2022-12-20T23:24:03;12.90;99.90
16040;DHT22;8124;48.634;8.120;2022-12-20T23:29:07;13.00;99.90
16040;DHT22;8124;48.634;8.120;2022-12-20T23:34:11;13.00;99.90
16040;DHT22;8124;48.634;8.120;2022-12-20T23:39:14;13.00;99.90
16040;DHT22;8124;48.634;8.120;2022-12-20T23:44:17;13.00;99.90
16040;DHT22;8124;48.634;8.120;2022-12-20T23:49:21;13.10;99.90
16040;DHT22;8124;48.634;8.120;2022-12-20T23:54:24;13.00;99.90
16040;DHT22;8124;48.634;8.120;2022-12-20T23:59:30;13.10;99.90
